Time;durP1;ratioP1;P1;durP2;ratioP2;P2;SDS_P1;SDS_P2;PMS_P1;PMS_P2;Temp;Humidity;BMP_temperature;BMP_pressure;BME280_temperature;BME280_humidity;BME280_pressure;Samples;Min_cycle;Max_cycle;Signal;HPM_P1;HPM_P2
2022/08/29 00:00:45;;;;;;;10.50;4.23;;;17.60;99.90;;;;;;5044890;28;20203;-44
2022/08/29 00:03:12;;;;;;;11.07;4.60;;;17.50;99.90;;;;;;5042097;28;20222;-47
2022/08/29 00:05:39;;;;;;;16.53;5.87;;;17.50;99.90;;;;;;5029345;28;21407;-51
2022/08/29 00:08:06;;;;;;;14.03;5.33;;;17.50;99.90;;;;;;5043927;28;20292;-44
2022/08/29 00:10:35;;;;;;;11.07;5.20;;;17.50;99.90;;;;;;5042573;28;20198;-49
2022/08/29 00:13:03;;;;;;;12.70;5.33;;;17.50;99.90;;;;;;5043370;28;20227;-47
2022/08/29 00:15:31;;;;;;;11.93;4.90;;;17.50;99.90;;;;;;5040591;28;20266;-46
2022/08/29 00:17:58;;;;;;;13.57;4.90;;;17.50;99.90;;;;;;5044883;28;20517;-46
2022/08/29 00:20:27;;;;;;;17.43;6.03;;;17.50;99.90;;;;;;5025817;28;20218;-45
2022/08/29 00:22:54;;;;;;;16.47;5.70;;;17.50;99.90;;;;;;5044265;28;20285;-45
2022/08/29 00:25:22;;;;;;;13.93;6.00;;;17.50;99.90;;;;;;5040324;28;21241;-44
2022/08/29 00:27:49;;;;;;;17.53;6.03;;;17.50;99.90;;;;;;5044498;28;20202;-46
2022/08/29 00:30:17;;;;;;;14.80;6.43;;;17.50;99.90;;;;;;5041261;28;20222;-44
2022/08/29 00:32:45;;;;;;;14.00;5.80;;;17.50;99.90;;;;;;5044170;28;20227;-46
2022/08/29 00:35:15;;;;;;;12.33;5.63;;;17.50;99.90;;;;;;5041649;28;20195;-48
2022/08/29 00:37:42;;;;;;;14.70;6.13;;;17.50;99.90;;;;;;5029346;28;20200;-45
2022/08/29 00:40:12;;;;;;;17.73;6.20;;;17.50;99.90;;;;;;5042825;28;20207;-44
2022/08/29 00:42:39;;;;;;;15.80;5.93;;;17.50;99.90;;;;;;5043066;28;20374;-47
2022/08/29 00:45:10;;;;;;;16.10;6.13;;;17.50;99.90;;;;;;5041480;28;20226;-46
2022/08/29 00:47:42;;;;;;;14.50;6.67;;;17.50;99.90;;;;;;5042815;28;20198;-46
2022/08/29 00:50:18;;;;;;;17.97;5.67;;;17.50;99.90;;;;;;5042791;28;20201;-45
2022/08/29 00:52:48;;;;;;;17.43;6.10;;;17.50;99.90;;;;;;5029493;28;20234;-44
2022/08/29 00:55:18;;;;;;;10.70;5.13;;;17.50;99.90;;;;;;5040323;28;20223;-44
2022/08/29 00:57:50;;;;;;;14.60;6.27;;;17.50;99.90;;;;;;5037978;28;20195;-49
2022/08/29 01:00:18;;;;;;;15.20;4.93;;;17.50;99.90;;;;;;5034607;28;20203;-44
2022/08/29 01:02:46;;;;;;;17.23;6.30;;;17.50;99.90;;;;;;5043691;28;20581;-44
2022/08/29 01:05:16;;;;;;;15.37;5.13;;;17.50;99.90;;;;;;5040939;28;20219;-46
2022/08/29 01:07:44;;;;;;;14.30;5.23;;;17.50;99.90;;;;;;5028503;28;20282;-44
2022/08/29 01:12:14;;;;;;;15.27;5.23;;;17.50;99.90;;;;;;5041715;28;20203;-46
2022/08/29 01:12:58;;;;;;;12.77;4.73;;;17.50;99.90;;;;;;5043563;28;20312;-44
2022/08/29 01:15:29;;;;;;;12.40;5.50;;;17.60;99.90;;;;;;5033459;28;20179;-44
2022/08/29 01:17:57;;;;;;;12.03;5.10;;;17.60;99.90;;;;;;5042567;28;20199;-45
2022/08/29 01:20:38;;;;;;;11.93;4.97;;;17.60;99.90;;;;;;5039702;28;20879;-44
2022/08/29 01:23:13;;;;;;;13.17;5.03;;;17.60;99.90;;;;;;5038159;28;20223;-45
2022/08/29 01:25:47;;;;;;;11.97;5.63;;;17.50;99.90;;;;;;5038485;28;20217;-44
2022/08/29 01:28:18;;;;;;;13.47;5.47;;;17.60;99.90;;;;;;5041160;28;20282;-44
2022/08/29 01:30:59;;;;;;;11.30;5.47;;;17.50;99.90;;;;;;5042848;28;20200;-44
2022/08/29 01:33:33;;;;;;;11.93;5.10;;;17.50;99.90;;;;;;5038662;28;20207;-45
2022/08/29 01:36:00;;;;;;;12.53;4.97;;;17.50;99.90;;;;;;5044012;28;20278;-44
2022/08/29 01:38:27;;;;;;;13.30;5.90;;;17.50;99.90;;;;;;5025662;28;20211;-45
2022/08/29 01:40:57;;;;;;;11.60;5.17;;;17.50;99.90;;;;;;5042709;28;20313;-46
2022/08/29 01:43:26;;;;;;;12.40;5.53;;;17.50;99.90;;;;;;5038604;28;20213;-46
2022/08/29 01:45:53;;;;;;;10.97;5.40;;;17.50;99.90;;;;;;5042590;28;20683;-45
2022/08/29 01:48:22;;;;;;;14.57;5.27;;;17.50;99.90;;;;;;5039644;28;20526;-46
2022/08/29 01:50:48;;;;;;;16.27;5.93;;;17.50;99.90;;;;;;5042863;28;20203;-44
2022/08/29 01:53:17;;;;;;;9.17;5.33;;;17.50;99.90;;;;;;5028278;28;20215;-44
2022/08/29 01:55:44;;;;;;;11.63;5.33;;;17.50;99.90;;;;;;5041000;28;20245;-45
2022/08/29 01:58:12;;;;;;;16.87;6.60;;;17.50;99.90;;;;;;5041091;28;20206;-44
2022/08/29 02:00:40;;;;;;;19.47;6.43;;;17.50;99.90;;;;;;5041416;28;20195;-45
2022/08/29 02:03:07;;;;;;;13.37;5.93;;;17.50;99.90;;;;;;5041911;28;20623;-46
2022/08/29 02:05:33;;;;;;;10.27;5.70;;;17.50;99.90;;;;;;5040179;28;20226;-49
2022/08/29 02:08:00;;;;;;;12.37;5.30;;;17.50;99.90;;;;;;5043222;28;20257;-46
2022/08/29 02:10:29;;;;;;;14.37;5.63;;;17.50;99.90;;;;;;5024283;28;20203;-51
2022/08/29 02:12:56;;;;;;;13.13;5.13;;;17.50;99.90;;;;;;5042280;28;20214;-44
2022/08/29 02:15:24;;;;;;;15.03;6.40;;;17.50;99.90;;;;;;5037613;28;20191;-44
2022/08/29 02:17:51;;;;;;;14.27;5.10;;;17.50;99.90;;;;;;5042751;28;20286;-45
2022/08/29 02:20:19;;;;;;;13.93;5.70;;;17.40;99.90;;;;;;5039162;28;20207;-45
2022/08/29 02:22:45;;;;;;;13.10;6.17;;;17.50;99.90;;;;;;5042621;28;20761;-46
2022/08/29 02:27:57;;;;;;;16.77;5.93;;;17.50;99.90;;;;;;5040246;28;20214;-45
2022/08/29 02:30:26;;;;;;;13.70;5.93;;;17.50;99.90;;;;;;5038316;28;20195;-45
2022/08/29 02:32:53;;;;;;;11.50;5.73;;;17.50;99.90;;;;;;5042326;28;20230;-49
2022/08/29 02:35:21;;;;;;;15.17;5.50;;;17.50;99.90;;;;;;5037937;28;20195;-45
2022/08/29 02:37:48;;;;;;;12.40;5.07;;;17.50;99.90;;;;;;5042980;28;20663;-46
2022/08/29 02:40:15;;;;;;;13.50;5.73;;;17.50;99.90;;;;;;5025270;28;20222;-45
2022/08/29 02:42:42;;;;;;;12.73;5.83;;;17.50;99.90;;;;;;5041712;28;20214;-45
2022/08/29 02:45:10;;;;;;;10.30;5.57;;;17.50;99.90;;;;;;5039300;28;20196;-46
2022/08/29 02:47:39;;;;;;;11.60;6.40;;;17.50;99.90;;;;;;5040630;28;20278;-43
2022/08/29 02:50:09;;;;;;;13.90;6.20;;;17.50;99.90;;;;;;5041707;28;20210;-46
2022/08/29 02:52:38;;;;;;;14.57;5.53;;;17.50;99.90;;;;;;5040496;28;20930;-45
2022/08/29 02:55:06;;;;;;;11.87;5.13;;;17.50;99.90;;;;;;5026097;28;20274;-45
2022/08/29 02:57:33;;;;;;;13.73;6.50;;;17.50;99.90;;;;;;5039856;28;20190;-45
2022/08/29 03:00:00;;;;;;;8.73;5.37;;;17.50;99.90;;;;;;5042234;28;20199;-45
2022/08/29 03:02:27;;;;;;;12.93;6.23;;;17.50;99.90;;;;;;5038663;28;20300;-47
2022/08/29 03:04:56;;;;;;;15.03;6.03;;;17.40;99.90;;;;;;5045276;28;20757;-44
2022/08/29 03:07:23;;;;;;;12.33;6.37;;;17.50;99.90;;;;;;5042148;28;20223;-45
2022/08/29 03:09:50;;;;;;;13.00;5.83;;;17.40;99.90;;;;;;5031597;28;20294;-46
2022/08/29 03:12:17;;;;;;;15.23;6.60;;;17.40;99.90;;;;;;5042328;28;20289;-46
2022/08/29 03:14:44;;;;;;;14.87;6.43;;;17.40;99.90;;;;;;5042774;28;20668;-46
2022/08/29 03:17:10;;;;;;;12.43;5.77;;;17.40;99.90;;;;;;5044169;28;20222;-46
2022/08/29 03:19:38;;;;;;;12.53;6.10;;;17.40;99.90;;;;;;5044498;28;20266;-44
2022/08/29 03:22:06;;;;;;;12.13;6.10;;;17.30;99.90;;;;;;5045205;28;20231;-47
2022/08/29 03:24:34;;;;;;;8.23;5.57;;;17.30;99.90;;;;;;5037589;28;20190;-45
2022/08/29 03:27:02;;;;;;;12.10;5.90;;;17.30;99.90;;;;;;5029261;28;20208;-43
2022/08/29 03:29:29;;;;;;;13.20;7.37;;;17.30;99.90;;;;;;5040648;28;20333;-44
2022/08/29 03:31:57;;;;;;;10.23;6.13;;;17.30;99.90;;;;;;5045636;28;20222;-43
2022/08/29 03:34:23;;;;;;;12.17;6.23;;;17.30;99.90;;;;;;5040181;28;20191;-43
2022/08/29 03:36:50;;;;;;;17.60;7.80;;;17.30;99.90;;;;;;5046120;28;20409;-47
2022/08/29 03:39:19;;;;;;;13.07;6.70;;;17.30;99.90;;;;;;5042547;28;20211;-45
2022/08/29 03:41:46;;;;;;;16.20;7.27;;;17.30;99.90;;;;;;5029609;28;20233;-45
2022/08/29 03:44:13;;;;;;;12.30;6.93;;;17.20;99.90;;;;;;5041833;28;20899;-45
2022/08/29 03:46:40;;;;;;;11.50;8.07;;;17.20;99.90;;;;;;5043961;28;20219;-48
2022/08/29 03:49:07;;;;;;;13.73;7.70;;;17.20;99.90;;;;;;5044086;28;20255;-45
2022/08/29 03:51:35;;;;;;;19.67;8.80;;;17.20;99.90;;;;;;5038053;28;20531;-45
2022/08/29 03:54:02;;;;;;;14.63;7.63;;;17.10;99.90;;;;;;5044575;28;20206;-45
2022/08/29 03:56:30;;;;;;;11.03;8.50;;;17.10;99.90;;;;;;5041912;28;20184;-45
2022/08/29 03:58:59;;;;;;;13.60;9.10;;;17.10;99.90;;;;;;5030187;28;20215;-43
2022/08/29 04:01:28;;;;;;;16.13;9.50;;;17.10;99.90;;;;;;5034545;28;20222;-45
2022/08/29 04:03:56;;;;;;;18.20;8.73;;;17.10;99.90;;;;;;5035555;28;20386;-45
2022/08/29 04:06:25;;;;;;;13.37;8.80;;;17.10;99.90;;;;;;5048478;28;20227;-46
2022/08/29 04:08:53;;;;;;;14.47;9.33;;;17.10;99.90;;;;;;5034785;28;20203;-47
2022/08/29 04:11:22;;;;;;;15.30;9.97;;;17.10;99.90;;;;;;5036449;28;20203;-44
2022/08/29 04:13:52;;;;;;;15.70;9.37;;;17.10;99.90;;;;;;5028303;28;20190;-48
2022/08/29 04:16:22;;;;;;;11.57;9.10;;;17.10;99.90;;;;;;5047299;28;20187;-47
2022/08/29 04:18:49;;;;;;;16.70;9.93;;;17.00;99.90;;;;;;5043701;28;20187;-47
2022/08/29 04:21:17;;;;;;;12.13;9.63;;;17.00;99.90;;;;;;5046946;28;20215;-45
2022/08/29 04:23:45;;;;;;;12.27;9.47;;;17.00;99.90;;;;;;5040284;28;20743;-44
2022/08/29 04:26:13;;;;;;;13.83;9.83;;;16.90;99.90;;;;;;5039884;28;20688;-43
2022/08/29 04:28:41;;;;;;;10.27;8.70;;;16.90;99.90;;;;;;5032651;28;20211;-44
2022/08/29 04:31:18;;;;;;;10.13;8.87;;;16.80;99.90;;;;;;5036819;28;20199;-44
2022/08/29 04:33:46;;;;;;;11.00;8.00;;;16.80;99.90;;;;;;5047470;28;20205;-46
2022/08/29 04:36:13;;;;;;;10.07;8.87;;;16.70;99.90;;;;;;5049539;28;20286;-47
2022/08/29 04:38:40;;;;;;;9.33;8.30;;;16.80;99.90;;;;;;5044787;28;20286;-47
2022/08/29 04:41:08;;;;;;;9.60;8.47;;;16.70;99.90;;;;;;5037342;28;20203;-45
2022/08/29 04:43:35;;;;;;;10.53;8.00;;;16.70;99.90;;;;;;5027129;28;20401;-45
2022/08/29 04:46:03;;;;;;;8.27;7.40;;;16.70;99.90;;;;;;5047241;28;20235;-45
2022/08/29 04:48:31;;;;;;;7.53;6.83;;;16.70;99.90;;;;;;5038386;28;20321;-44
2022/08/29 04:51:01;;;;;;;7.20;6.50;;;16.70;99.90;;;;;;5038497;28;20605;-43
2022/08/29 04:53:28;;;;;;;9.73;6.30;;;16.70;99.90;;;;;;5038657;28;20227;-47
2022/08/29 04:55:57;;;;;;;7.10;6.40;;;16.70;99.90;;;;;;5040621;28;20214;-44
2022/08/29 04:58:24;;;;;;;6.93;6.23;;;16.80;99.90;;;;;;5025711;28;21624;-46
2022/08/29 05:00:52;;;;;;;7.70;5.57;;;16.80;99.90;;;;;;5044842;28;20685;-47
2022/08/29 05:03:19;;;;;;;8.23;6.17;;;16.80;99.90;;;;;;5043898;28;20219;-45
2022/08/29 05:05:55;;;;;;;8.10;6.07;;;16.80;99.90;;;;;;5049745;28;20199;-46
2022/08/29 05:08:22;;;;;;;5.90;5.40;;;16.90;99.90;;;;;;5035491;28;20222;-44
2022/08/29 05:10:49;;;;;;;6.23;5.63;;;16.90;99.90;;;;;;5044319;28;20202;-44
2022/08/29 05:13:16;;;;;;;6.30;5.70;;;16.90;99.90;;;;;;5038169;28;20599;-45
2022/08/29 05:15:43;;;;;;;6.03;5.37;;;16.90;99.90;;;;;;5032896;28;20965;-43
2022/08/29 05:18:11;;;;;;;6.97;5.60;;;16.90;99.90;;;;;;5047362;28;20226;-45
2022/08/29 05:20:39;;;;;;;7.27;5.90;;;16.90;99.90;;;;;;5042746;28;20207;-45
2022/08/29 05:23:07;;;;;;;6.10;5.50;;;16.90;99.90;;;;;;5040616;28;20326;-44
2022/08/29 05:25:35;;;;;;;6.27;4.97;;;16.90;99.90;;;;;;5045168;28;20202;-45
2022/08/29 05:28:02;;;;;;;5.50;5.00;;;16.90;99.90;;;;;;5043336;28;20757;-45
2022/08/29 05:30:30;;;;;;;5.60;4.80;;;16.90;99.90;;;;;;5031560;28;20323;-46
2022/08/29 05:32:56;;;;;;;6.17;4.93;;;16.90;99.90;;;;;;5044080;28;20294;-47
2022/08/29 05:35:24;;;;;;;4.60;4.20;;;16.90;99.90;;;;;;5038490;28;20205;-50
2022/08/29 05:37:51;;;;;;;4.87;4.43;;;16.90;99.90;;;;;;5047499;28;20192;-44
2022/08/29 05:40:20;;;;;;;4.70;4.23;;;16.90;99.90;;;;;;5041160;28;20203;-45
2022/08/29 05:42:47;;;;;;;6.90;5.10;;;16.90;99.90;;;;;;5044906;28;20223;-46
2022/08/29 05:45:14;;;;;;;4.80;4.23;;;17.00;99.90;;;;;;5031523;28;20203;-44
2022/08/29 05:47:41;;;;;;;4.20;3.90;;;17.00;99.90;;;;;;5045218;28;20222;-47
2022/08/29 05:50:10;;;;;;;4.60;4.30;;;17.10;99.90;;;;;;5037393;28;20231;-46
2022/08/29 05:52:38;;;;;;;4.23;3.83;;;17.10;99.90;;;;;;5043777;28;20265;-45
2022/08/29 05:55:05;;;;;;;4.90;3.73;;;17.10;99.90;;;;;;5036516;28;20199;-45
2022/08/29 05:57:33;;;;;;;3.40;3.20;;;17.20;99.90;;;;;;5041351;28;20188;-45
2022/08/29 06:00:00;;;;;;;4.53;4.10;;;17.20;99.90;;;;;;5042115;28;20203;-46
2022/08/29 06:02:27;;;;;;;4.03;3.70;;;17.20;99.90;;;;;;5025153;28;20405;-46
2022/08/29 06:04:55;;;;;;;4.00;3.63;;;17.20;99.90;;;;;;5031303;28;20205;-45
2022/08/29 06:07:23;;;;;;;3.80;3.50;;;17.20;99.90;;;;;;5041646;28;20227;-45
2022/08/29 06:09:51;;;;;;;4.83;4.43;;;17.20;99.90;;;;;;5039097;28;20187;-44
2022/08/29 06:12:19;;;;;;;3.87;3.50;;;17.20;99.90;;;;;;5041716;28;20245;-48
2022/08/29 06:14:47;;;;;;;4.53;4.13;;;17.20;99.90;;;;;;5038811;28;20796;-46
2022/08/29 06:17:14;;;;;;;4.60;4.20;;;17.20;99.90;;;;;;5025604;28;20222;-45
2022/08/29 06:19:41;;;;;;;3.70;3.40;;;17.20;99.90;;;;;;5038050;28;20214;-43
2022/08/29 06:22:09;;;;;;;3.83;3.63;;;17.20;99.90;;;;;;5042669;28;20310;-44
2022/08/29 06:24:36;;;;;;;4.07;3.53;;;17.10;99.90;;;;;;5035229;28;20203;-47
2022/08/29 06:27:04;;;;;;;3.80;3.50;;;17.10;99.90;;;;;;5025630;28;20211;-46
2022/08/29 06:29:30;;;;;;;4.03;3.70;;;17.10;99.90;;;;;;5039588;28;20191;-45
2022/08/29 06:31:59;;;;;;;4.20;3.80;;;17.10;99.90;;;;;;5019086;28;20223;-48
2022/08/29 06:34:26;;;;;;;4.20;3.63;;;17.10;99.90;;;;;;5032829;28;20203;-45
2022/08/29 06:36:53;;;;;;;5.00;3.30;;;17.10;99.90;;;;;;5040128;28;20206;-48
2022/08/29 06:39:19;;;;;;;3.40;3.10;;;17.10;99.90;;;;;;5042833;28;20210;-48
2022/08/29 06:41:47;;;;;;;6.20;3.63;;;17.20;99.90;;;;;;5043947;28;20215;-45
2022/08/29 06:44:15;;;;;;;3.17;2.90;;;17.20;99.90;;;;;;5041911;28;20214;-44
2022/08/29 06:46:43;;;;;;;3.57;3.23;;;17.30;99.90;;;;;;5040716;28;20223;-43
2022/08/29 06:49:14;;;;;;;2.73;2.53;;;17.30;99.90;;;;;;5024730;28;20206;-48
2022/08/29 06:51:44;;;;;;;3.07;2.87;;;17.30;99.90;;;;;;5045544;28;20223;-40
2022/08/29 06:54:12;;;;;;;3.40;2.63;;;17.30;99.90;;;;;;5039131;28;20297;-43
2022/08/29 06:56:39;;;;;;;2.70;2.50;;;17.30;99.90;;;;;;5045314;28;20195;-43
2022/08/29 06:59:07;;;;;;;2.93;2.73;;;17.30;99.90;;;;;;5039784;28;20206;-41
2022/08/29 07:01:34;;;;;;;2.90;2.60;;;17.30;99.90;;;;;;5037964;28;20297;-40
2022/08/29 07:04:02;;;;;;;2.23;2.10;;;17.30;99.90;;;;;;5026520;28;20285;-41
2022/08/29 07:06:30;;;;;;;2.00;1.90;;;17.40;99.90;;;;;;5044309;28;20195;-40
2022/08/29 07:08:58;;;;;;;2.70;2.07;;;17.40;99.90;;;;;;5041941;28;20226;-40
2022/08/29 07:11:26;;;;;;;2.13;1.90;;;17.40;99.90;;;;;;5045397;28;20216;-39
2022/08/29 07:13:56;;;;;;;3.87;1.93;;;17.40;99.90;;;;;;5037775;28;20234;-39
2022/08/29 07:16:23;;;;;;;3.47;1.80;;;17.50;99.90;;;;;;5041330;28;20231;-39
2022/08/29 07:18:50;;;;;;;1.70;1.60;;;17.60;99.90;;;;;;5028455;28;20207;-38
2022/08/29 07:21:19;;;;;;;2.40;1.93;;;17.70;99.90;;;;;;5034258;28;20199;-42
2022/08/29 07:23:47;;;;;;;1.90;1.67;;;17.80;99.90;;;;;;5044413;28;20196;-39
2022/08/29 07:26:19;;;;;;;1.43;1.33;;;17.90;99.90;;;;;;5040774;28;20822;-43
2022/08/29 07:28:46;;;;;;;1.67;1.57;;;17.90;99.90;;;;;;5043497;28;20241;-40
2022/08/29 07:31:14;;;;;;;1.37;1.27;;;18.00;99.90;;;;;;5039257;28;20207;-46
2022/08/29 07:33:41;;;;;;;1.53;1.33;;;18.00;99.90;;;;;;5032342;28;20203;-41
2022/08/29 07:36:09;;;;;;;1.50;1.40;;;18.10;99.90;;;;;;5023292;28;20866;-45
2022/08/29 07:38:36;;;;;;;1.70;1.60;;;18.20;99.90;;;;;;5040975;28;20553;-43
2022/08/29 07:41:06;;;;;;;1.40;1.27;;;18.30;99.90;;;;;;5041801;28;20294;-40
2022/08/29 07:43:33;;;;;;;1.47;1.37;;;18.40;99.90;;;;;;5041302;28;20223;-40
2022/08/29 07:46:05;;;;;;;2.03;1.30;;;18.50;99.90;;;;;;5041969;28;20196;-42
2022/08/29 07:48:31;;;;;;;2.07;1.33;;;18.60;99.90;;;;;;5039200;28;20219;-42
2022/08/29 07:50:58;;;;;;;1.37;1.27;;;18.70;99.90;;;;;;5022990;28;20207;-39
2022/08/29 07:53:25;;;;;;;2.40;1.27;;;18.70;99.90;;;;;;5042332;28;20234;-39
2022/08/29 07:55:52;;;;;;;1.33;1.23;;;18.70;99.90;;;;;;5043050;28;20195;-43
2022/08/29 07:58:20;;;;;;;1.40;1.20;;;18.70;99.90;;;;;;5041581;28;20851;-39
2022/08/29 08:00:47;;;;;;;1.70;1.20;;;18.70;99.90;;;;;;5043250;28;20196;-40
2022/08/29 08:03:14;;;;;;;1.30;1.20;;;18.80;99.90;;;;;;5040129;28;20342;-38
2022/08/29 08:05:41;;;;;;;1.77;1.30;;;19.00;99.90;;;;;;5041586;28;20671;-41
2022/08/29 08:08:08;;;;;;;1.63;1.23;;;19.20;99.90;;;;;;5019328;28;20745;-42
2022/08/29 08:10:37;;;;;;;2.53;1.40;;;19.30;99.90;;;;;;5041253;28;20772;-42
2022/08/29 08:13:04;;;;;;;2.10;1.30;;;19.40;99.90;;;;;;5039830;28;20314;-38
2022/08/29 08:15:32;;;;;;;1.20;1.20;;;19.30;99.90;;;;;;5042843;28;20683;-42
2022/08/29 08:17:59;;;;;;;1.50;1.40;;;19.30;99.90;;;;;;5041788;28;20203;-40
2022/08/29 08:20:26;;;;;;;1.93;1.30;;;19.30;99.90;;;;;;5034818;28;20215;-40
2022/08/29 08:22:53;;;;;;;3.07;1.13;;;19.30;99.90;;;;;;5025703;28;20238;-42
2022/08/29 08:25:19;;;;;;;2.47;1.10;;;19.30;99.90;;;;;;5038659;28;20907;-42
2022/08/29 08:27:46;;;;;;;1.40;1.30;;;19.40;99.90;;;;;;5043186;28;20306;-41
2022/08/29 08:30:13;;;;;;;2.03;1.10;;;19.40;99.90;;;;;;5031860;28;20313;-39
2022/08/29 08:32:42;;;;;;;1.80;1.10;;;19.40;99.90;;;;;;5044295;28;20216;-40
2022/08/29 08:35:10;;;;;;;1.13;1.07;;;19.40;99.90;;;;;;5038161;28;20214;-40
2022/08/29 08:37:37;;;;;;;1.57;1.47;;;19.40;99.90;;;;;;5025054;28;20203;-40
2022/08/29 08:40:05;;;;;;;1.20;1.10;;;19.40;99.90;;;;;;5038047;28;20215;-39
2022/08/29 08:42:41;;;;;;;1.27;0.93;;;19.50;99.90;;;;;;5040598;28;20704;-39
2022/08/29 08:45:10;;;;;;;2.47;1.17;;;19.60;99.90;;;;;;5039417;28;20205;-43
2022/08/29 08:47:41;;;;;;;1.73;0.70;;;19.60;99.90;;;;;;5043215;28;20668;-41
2022/08/29 08:50:16;;;;;;;2.63;0.83;;;19.70;99.90;;;;;;5033034;28;20188;-40
2022/08/29 08:52:49;;;;;;;0.73;0.73;;;19.60;99.90;;;;;;5018253;28;20322;-39
2022/08/29 08:55:27;;;;;;;1.20;0.87;;;19.70;99.90;;;;;;5038992;28;20191;-41
2022/08/29 08:58:02;;;;;;;0.90;0.90;;;19.80;99.90;;;;;;5041910;28;20668;-40
2022/08/29 09:00:34;;;;;;;1.10;0.83;;;19.90;99.90;;;;;;5037964;28;20195;-41
2022/08/29 09:03:08;;;;;;;1.83;0.90;;;19.90;99.90;;;;;;5037824;28;20214;-40
2022/08/29 09:05:47;;;;;;;0.73;0.73;;;19.90;99.90;;;;;;5042590;28;20225;-44
2022/08/29 09:08:22;;;;;;;1.60;0.90;;;19.90;99.90;;;;;;5016910;28;20219;-40
2022/08/29 09:10:57;;;;;;;1.67;1.00;;;19.90;99.90;;;;;;5039692;28;20284;-40
2022/08/29 09:13:36;;;;;;;1.50;0.77;;;19.90;99.90;;;;;;5035588;28;20207;-42
2022/08/29 09:16:20;;;;;;;0.70;0.70;;;20.00;99.90;;;;;;5039134;28;20245;-40
2022/08/29 09:18:47;;;;;;;1.77;0.90;;;20.00;99.90;;;;;;5041043;28;20817;-41
2022/08/29 09:21:18;;;;;;;1.53;0.93;;;20.10;99.90;;;;;;5037633;28;20331;-41
2022/08/29 09:23:48;;;;;;;1.17;1.10;;;20.20;99.90;;;;;;5017147;28;20203;-42
2022/08/29 09:26:17;;;;;;;0.93;0.73;;;20.20;99.90;;;;;;5038246;28;20889;-41
2022/08/29 09:28:44;;;;;;;0.90;0.60;;;20.20;99.90;;;;;;5042298;28;20718;-39
2022/08/29 09:31:21;;;;;;;0.70;0.70;;;20.20;99.90;;;;;;5035407;28;20199;-42
2022/08/29 09:33:52;;;;;;;0.50;0.50;;;20.10;99.90;;;;;;5040552;28;20280;-41
2022/08/29 09:36:40;;;;;;;0.83;0.73;;;20.10;99.90;;;;;;5034392;28;20313;-41
2022/08/29 09:39:21;;;;;;;0.60;0.60;;;20.20;99.90;;;;;;5018438;28;20199;-41
2022/08/29 09:41:50;;;;;;;1.33;0.57;;;20.20;99.90;;;;;;5031564;28;20230;-39
2022/08/29 09:44:23;;;;;;;1.70;0.50;;;20.30;99.90;;;;;;5038187;28;20191;-42
2022/08/29 09:47:09;;;;;;;0.73;0.63;;;20.30;99.90;;;;;;5041631;28;20294;-40
2022/08/29 09:49:38;;;;;;;0.63;0.40;;;20.30;99.90;;;;;;5039539;28;20636;-40
2022/08/29 09:52:13;;;;;;;1.60;0.47;;;20.40;99.90;;;;;;5036131;28;20289;-40
2022/08/29 09:54:41;;;;;;;0.67;0.40;;;20.50;99.90;;;;;;5026864;28;20203;-40
2022/08/29 09:57:13;;;;;;;0.50;0.50;;;20.60;99.90;;;;;;5034506;28;20249;-40
2022/08/29 09:59:42;;;;;;;0.43;0.40;;;20.60;99.90;;;;;;5040588;28;20606;-44
2022/08/29 10:02:19;;;;;;;0.53;0.50;;;20.60;99.90;;;;;;5033541;28;20819;-40
2022/08/29 10:04:48;;;;;;;0.47;0.47;;;20.60;99.90;;;;;;5034946;28;20206;-39
2022/08/29 10:07:21;;;;;;;0.83;0.50;;;20.60;99.90;;;;;;5039410;28;20274;-39
2022/08/29 10:10:02;;;;;;;1.30;0.67;;;20.60;99.90;;;;;;5025561;28;20199;-43
2022/08/29 10:12:46;;;;;;;0.50;0.40;;;20.60;99.90;;;;;;5039136;28;20207;-39
2022/08/29 10:15:18;;;;;;;1.95;0.60;;;20.50;99.90;;;;;;5037113;28;20198;-39
2022/08/29 10:20:50;;;;;;;0.63;0.50;;;20.60;99.90;;;;;;5041864;28;20207;-39
2022/08/29 10:23:29;;;;;;;0.50;0.50;;;20.70;99.90;;;;;;5037757;28;20288;-40
2022/08/29 10:26:03;;;;;;;2.33;0.60;;;20.90;99.90;;;;;;5025138;28;20214;-39
2022/08/29 10:28:38;;;;;;;0.70;0.70;;;21.00;99.90;;;;;;5035062;28;20219;-40
2022/08/29 10:31:11;;;;;;;3.70;0.70;;;21.00;99.90;;;;;;5038396;28;20258;-40
2022/08/29 10:34:10;;;;;;;0.57;0.50;;;21.00;99.90;;;;;;5040937;28;20195;-42
2022/08/29 10:36:39;;;;;;;0.55;0.55;;;21.00;99.90;;;;;;5035284;28;20203;-42
2022/08/29 10:39:15;;;;;;;0.60;0.60;;;21.00;99.90;;;;;;5022775;28;20277;-41
2022/08/29 10:41:54;;;;;;;0.60;0.50;;;21.00;99.90;;;;;;5041020;28;20225;-43
2022/08/29 10:44:32;;;;;;;1.23;0.80;;;21.00;99.90;;;;;;5039234;28;20203;-41
2022/08/29 10:47:15;;;;;;;1.00;0.70;;;21.00;99.90;;;;;;5037917;28;20199;-40
2022/08/29 10:50:01;;;;;;;1.60;0.70;;;21.00;99.90;;;;;;5036756;28;20215;-43
2022/08/29 10:52:33;;;;;;;0.88;0.60;;;21.00;99.90;;;;;;5037454;28;20296;-39
2022/08/29 10:55:10;;;;;;;2.15;0.70;;;21.10;99.90;;;;;;5022120;28;20211;-39
2022/08/29 10:57:49;;;;;;;1.73;0.82;;;21.20;99.90;;;;;;5041451;28;20554;-40
2022/08/29 11:00:19;;;;;;;0.73;0.73;;;21.30;99.90;;;;;;5037637;28;20293;-44
2022/08/29 11:02:51;;;;;;;1.08;0.80;;;21.40;99.90;;;;;;5041400;28;20281;-39
2022/08/29 11:05:24;;;;;;;1.10;1.00;;;21.30;99.90;;;;;;5038127;28;20195;-41
2022/08/29 11:08:00;;;;;;;1.45;0.88;;;21.20;99.90;;;;;;5040570;28;20230;-41
2022/08/29 11:10:37;;;;;;;1.63;0.65;;;21.20;99.90;;;;;;5025603;28;20203;-41
2022/08/29 11:13:09;;;;;;;0.77;0.77;;;21.10;99.90;;;;;;5036854;28;20290;-39
2022/08/29 11:15:41;;;;;;;1.17;0.82;;;21.00;99.90;;;;;;5040077;28;20214;-41
2022/08/29 11:18:17;;;;;;;0.70;0.70;;;21.10;99.90;;;;;;5037261;28;20192;-41
2022/08/29 11:20:48;;;;;;;1.88;0.88;;;21.00;99.90;;;;;;5041487;28;20828;-40
2022/08/29 11:23:34;;;;;;;0.88;0.88;;;21.10;99.90;;;;;;5036397;28;20224;-42
2022/08/29 11:26:12;;;;;;;2.00;0.80;;;21.20;99.90;;;;;;5030136;28;20661;-39
2022/08/29 11:28:48;;;;;;;1.58;1.05;;;21.30;99.90;;;;;;5043464;28;20215;-40
2022/08/29 11:31:21;;;;;;;1.48;0.98;;;21.40;99.90;;;;;;5041775;28;20244;-41
2022/08/29 11:33:57;;;;;;;4.50;1.10;;;21.50;99.90;;;;;;5043217;28;20283;-41
2022/08/29 11:36:45;;;;;;;1.27;0.90;;;21.40;99.90;;;;;;5036879;28;20932;-39
2022/08/29 11:39:36;;;;;;;1.70;0.98;;;21.40;99.90;;;;;;5041699;28;20989;-40
2022/08/29 11:42:07;;;;;;;0.70;0.70;;;21.30;99.90;;;;;;5021321;28;20631;-39
2022/08/29 11:44:38;;;;;;;1.73;0.70;;;21.30;99.90;;;;;;5037833;28;20230;-39
2022/08/29 11:47:31;;;;;;;0.82;0.82;;;21.30;99.90;;;;;;5037931;28;20204;-39
2022/08/29 11:50:04;;;;;;;0.77;0.77;;;21.40;99.90;;;;;;5039842;28;20306;-39
2022/08/29 11:52:31;;;;;;;1.30;0.93;;;21.40;99.90;;;;;;5044184;28;20234;-39
2022/08/29 11:55:27;;;;;;;1.42;1.02;;;21.40;99.90;;;;;;5040851;28;20964;-40
2022/08/29 11:57:59;;;;;;;0.90;0.90;;;21.40;99.90;;;;;;5026737;28;20211;-40
2022/08/29 12:00:40;;;;;;;1.98;0.90;;;21.40;99.90;;;;;;5041268;28;21368;-40
2022/08/29 12:03:54;;;;;;;0.70;0.70;;;21.30;99.90;;;;;;5039898;28;20222;-41
2022/08/29 12:06:39;;;;;;;0.80;0.80;;;21.10;99.90;;;;;;5041917;28;20939;-41
2022/08/29 12:09:32;;;;;;;1.58;1.00;;;21.00;99.90;;;;;;5038128;28;20266;-41
2022/08/29 12:12:40;;;;;;;1.27;0.90;;;20.90;99.90;;;;;;5023537;28;20771;-42
2022/08/29 12:15:40;;;;;;;1.70;0.90;;;20.80;99.90;;;;;;5037663;28;20192;-40
2022/08/29 12:18:30;;;;;;;0.73;0.73;;;20.80;99.90;;;;;;5033544;28;20766;-40
2022/08/29 12:20:57;;;;;;;1.52;0.80;;;20.70;99.90;;;;;;5037626;28;20219;-38
2022/08/29 12:23:27;;;;;;;2.15;0.60;;;20.70;99.90;;;;;;5041372;28;20230;-39
2022/08/29 12:25:55;;;;;;;1.65;0.90;;;20.70;99.90;;;;;;5042566;28;20730;-40
2022/08/29 12:28:35;;;;;;;1.88;1.00;;;20.70;99.90;;;;;;5025896;28;20226;-39
2022/08/29 12:31:11;;;;;;;1.35;0.88;;;20.70;99.90;;;;;;5040531;28;20679;-39
2022/08/29 12:33:59;;;;;;;3.22;0.93;;;20.60;99.90;;;;;;5042920;28;20209;-39
2022/08/29 12:36:36;;;;;;;4.28;0.70;;;20.60;99.90;;;;;;5038202;28;20206;-39
2022/08/29 12:39:19;;;;;;;3.50;1.50;;;20.50;99.90;;;;;;5033024;28;20972;-38
2022/08/29 12:42:17;;;;;;;1.92;0.90;;;20.50;99.90;;;;;;5044184;28;20210;-38
2022/08/29 12:44:46;;;;;;;0.82;0.73;;;20.50;99.90;;;;;;5017520;28;20232;-40
2022/08/29 12:47:20;;;;;;;1.08;0.57;;;20.50;99.90;;;;;;5041094;28;20210;-39
2022/08/29 12:49:50;;;;;;;3.08;0.90;;;20.40;99.90;;;;;;5042331;28;20955;-42
2022/08/29 12:52:25;;;;;;;1.10;0.68;;;20.30;99.90;;;;;;5041883;28;20245;-39
2022/08/29 12:54:53;;;;;;;1.40;0.85;;;20.30;99.90;;;;;;5041384;28;20191;-40
2022/08/29 12:57:22;;;;;;;1.42;0.80;;;20.30;99.90;;;;;;5043269;28;20196;-40
2022/08/29 12:59:52;;;;;;;0.70;0.70;;;20.30;99.90;;;;;;5024177;28;20192;-40
2022/08/29 13:02:28;;;;;;;1.23;0.77;;;20.30;99.90;;;;;;5042012;28;20771;-39
2022/08/29 13:04:56;;;;;;;0.77;0.60;;;20.40;99.90;;;;;;5033880;28;20187;-39
2022/08/29 13:07:24;;;;;;;1.10;0.60;;;20.40;99.90;;;;;;5042712;28;20203;-42